Addington, OK

4:47 PM CDT on July 23, 2014 (GMT -0500)
HADS BEAVER CREEK AT WAURIKA LAKE NEA OK US USARMY-COE (MWRLO2) Elev 991 ft | 34.23 °N, 98.05 °W | Change Station
Active Advisory: Heat Advisory

Current weather conditions updated 47 minutes ago

Clear
Clear
85 °F
Feels Like 84 °F
N
5
Wind Variable Wind from NW
Gusts 0.0 mph

Tomorrow is forecast to be Much Warmer than today.

Today
High -- | Low -- °F
--% Chance of Precip.
Yesterday
High -- | Low -- °F
Precip. -- in
6:36 AM 8:39 PM
Waning Crescent, 8% visible
Pressure 30.05 in
Visibility 10.0 miles
Clouds Clear
Heat Index 84 °F
Dew Point 58 °F
Humidity 40%
Rainfall 0.00 in
Snow Depth Not available.
UV 7 out of 12
Pollen 4.70 out of 12
Air Quality Not available.
Flu Activity Not available.
METAR KDUC 232135Z AUTO 00000KT 10SM CLR 36/21 A3005 RMK AO2 PWINO TSNO

More Conditions Fewer Conditions

Pressure 30.05 in
Visibility 10.0 miles
Clouds Clear
Heat Index 84 °F
Dew Point 58 °F
Humidity 40%
Rainfall 0.00 in
Snow Depth Not available.
UV 7 out of 12
Pollen 4.70 out of 12
Air Quality Not available.
Flu Activity Not available.
METAR KDUC 232135Z AUTO 00000KT 10SM CLR 36/21 A3005 RMK AO2 PWINO TSNO

More Conditions Fewer Conditions

10-Day Weather Forecast

Almanac

Astronomy

Jul. 23, 2014 Rise Set
Actual Time 6:36 AM CDT 8:39 PM CDT
Civil Twilight 6:08 AM CDT 9:07 PM CDT
Nautical Twilight 5:34 AM CDT 9:42 PM CDT
Astronomical Twilight 4:57 AM CDT 10:18 PM CDT
Moon 3:55 AM CDT 6:10 PM CDT
Length of Visible Light 14h 59m
Length of Day
14h 03m
Tomorrow will be 1m 21s shorter.
Waning Crescent, 8% of the Moon is Illuminated
Today
Waning Crescent
Jul 26
New
Aug 3
First Quarter
Aug 10
Full
Aug 17
Last Quarter

Today's Extremes

State Highs State Lows

Community

WunderPhotos

Upload Photos

1,736,797 photos uploaded!

Nearby

Snow Depth

Station Depth Elevation
No new snow has been reported.

Earthquake Activity

City Distance Mag. Time & Date
Spencer, Oklahoma 98 miles 2.7 4:56 PM CDT
2014-07-18
Guthrie, Oklahoma 118 miles 2.9 8:59 PM CDT
2014-07-17
Perry, Oklahoma 135 miles 2.8 8:37 PM CDT
2014-07-17
Guthrie, Oklahoma 117 miles 2.6 7:09 PM CDT
2014-07-16
Minimum magnitude displayed is 2.5.

Coastal Water Temperatures

Place Temperature
No Stations Reporting

Nearby Weather Stations

Station Location Temp. Heat Index Dew Point Humidity Wind Precip. Elev Updated Type
HADS BEAVER CREEK AT WAURIKA LAKE NEA OK, Hastings, OK 85 °F 84 °F 58 °F 40% NW  at  5 mph 0.00 in / hr 991 ft 4:00 PM CDT MADIS
MesoWest COMNCH , Comanche, OK 93 °F 89 °F - - North  at  - 0.00 in / hr 994 ft 1:10 PM CDT MADIS
Duncan Golf and Tennis Club, Duncan, OK 94.1 °F 100 °F 69 °F 45% North  at  2.9 mph 0.00 in / hr 1165 ft 4:47 PM CDT Rapid Fire
Grady/Oscar, Grady, OK 97.3 °F 106 °F 71 °F 43% NNE  at  0.9 mph 0.00 in / hr 896 ft 4:36 PM CDT Rapid Fire
MesoWest MARLOW , Bray, OK 87 °F 84 °F - - North  at  - 0.00 in / hr 1324 ft 1:30 PM CDT MADIS

Show More Stations Show Fewer Stations